UAE660 OMDB-VRMM
Flight info
| Callsign | UAE660 |
|---|---|
| Flight time | N/A |
| Altitude | 37000 |
| Route | ANVIX L223 TARDI N629 GIDAN P570 KITAL L894 BOLUR/N0477F390 L894 ELBET ELBET1A |
| Aircraft | B77L/H-SDE1E2E3FGHIJ2J3J4J5M1RWXY/LB1D1 |
Departure
| Time | N/A |
|---|---|
| Airport | Dubai International Airport (OMDB) |
Arrival
| Time | 2026-05-08 20:02 |
|---|---|
| Airport | Velana International Airport (VRMM) |
| Time | Latitude | Longitude | Altitude | Speed | Heading |
|---|---|---|---|---|---|
| 2026-05-08 17:09 | 20.53654 | 59.99097 | 36837 ft | 482 kts | 150° |
| 2026-05-08 17:10 | 20.47898 | 60.02765 | 36841 ft | 482 kts | 150° |
| 2026-05-08 17:10 | 20.42140 | 60.06431 | 36845 ft | 482 kts | 150° |
| 2026-05-08 17:11 | 20.36379 | 60.10094 | 36843 ft | 482 kts | 151° |
| 2026-05-08 17:11 | 20.30622 | 60.13753 | 36846 ft | 481 kts | 151° |
| 2026-05-08 17:12 | 20.24862 | 60.17410 | 36839 ft | 481 kts | 150° |
| 2026-05-08 17:12 | 20.19110 | 60.21059 | 36850 ft | 481 kts | 151° |
| 2026-05-08 17:13 | 20.13354 | 60.24709 | 36846 ft | 481 kts | 150° |
| 2026-05-08 17:13 | 20.07606 | 60.28350 | 36854 ft | 481 kts | 150° |
| 2026-05-08 17:14 | 20.02214 | 60.32503 | 36849 ft | 484 kts | 139° |
| 2026-05-08 17:14 | 19.97224 | 60.37305 | 36863 ft | 484 kts | 139° |
| 2026-05-08 17:15 | 19.92239 | 60.42112 | 36857 ft | 484 kts | 139° |
| 2026-05-08 17:15 | 19.87232 | 60.46896 | 36862 ft | 484 kts | 140° |
| 2026-05-08 17:16 | 19.82213 | 60.51663 | 36860 ft | 484 kts | 139° |
| 2026-05-08 17:16 | 19.77191 | 60.56423 | 36858 ft | 484 kts | 140° |
| 2026-05-08 17:17 | 19.72172 | 60.61178 | 36858 ft | 484 kts | 139° |
| 2026-05-08 17:17 | 19.67153 | 60.65930 | 36866 ft | 483 kts | 139° |
| 2026-05-08 17:18 | 19.62978 | 60.69880 | 36865 ft | 483 kts | 140° |
| 2026-05-08 17:19 | 19.52442 | 60.79836 | 36868 ft | 482 kts | 139° |
| 2026-05-08 17:19 | 19.47432 | 60.84564 | 36870 ft | 482 kts | 140° |
| 2026-05-08 17:20 | 19.42423 | 60.89286 | 36867 ft | 482 kts | 140° |
| 2026-05-08 17:20 | 19.37408 | 60.94010 | 36869 ft | 482 kts | 139° |
| 2026-05-08 17:21 | 19.32398 | 60.98727 | 36868 ft | 482 kts | 140° |
| 2026-05-08 17:21 | 19.27420 | 61.03407 | 36871 ft | 482 kts | 139° |
| 2026-05-08 17:22 | 19.22404 | 61.08120 | 36870 ft | 481 kts | 139° |
| 2026-05-08 17:22 | 19.17383 | 61.12834 | 36878 ft | 481 kts | 139° |
| 2026-05-08 17:23 | 19.12403 | 61.17506 | 36876 ft | 481 kts | 140° |
| 2026-05-08 17:23 | 19.07392 | 61.22202 | 36872 ft | 481 kts | 139° |
| 2026-05-08 17:24 | 19.02393 | 61.26883 | 36873 ft | 481 kts | 139° |
| 2026-05-08 17:24 | 18.97378 | 61.31575 | 36880 ft | 480 kts | 139° |
| 2026-05-08 17:25 | 18.92370 | 61.36257 | 36877 ft | 480 kts | 139° |
| 2026-05-08 17:25 | 18.87394 | 61.40905 | 36877 ft | 480 kts | 139° |
| 2026-05-08 17:26 | 18.82393 | 61.45573 | 36888 ft | 480 kts | 139° |
| 2026-05-08 17:26 | 18.79882 | 61.47915 | 36881 ft | 481 kts | 139° |
| 2026-05-08 17:27 | 18.72569 | 61.54731 | 36878 ft | 481 kts | 139° |
| 2026-05-08 17:27 | 18.67546 | 61.59407 | 36878 ft | 481 kts | 139° |
| 2026-05-08 17:28 | 18.62524 | 61.64079 | 36885 ft | 481 kts | 139° |
| 2026-05-08 17:28 | 18.57502 | 61.68748 | 36882 ft | 481 kts | 139° |
| 2026-05-08 17:29 | 18.52478 | 61.73414 | 36886 ft | 481 kts | 139° |
| 2026-05-08 17:29 | 18.47447 | 61.78082 | 36887 ft | 481 kts | 139° |
| 2026-05-08 17:30 | 18.42413 | 61.82750 | 36893 ft | 481 kts | 140° |
| 2026-05-08 17:30 | 18.37417 | 61.87379 | 36888 ft | 482 kts | 139° |
| 2026-05-08 17:31 | 18.32377 | 61.92045 | 36894 ft | 482 kts | 139° |
| 2026-05-08 17:31 | 18.27327 | 61.96716 | 36890 ft | 482 kts | 139° |
| 2026-05-08 17:32 | 18.22287 | 62.01375 | 36888 ft | 482 kts | 139° |
| 2026-05-08 17:32 | 18.17271 | 62.06007 | 36896 ft | 482 kts | 139° |
| 2026-05-08 17:33 | 18.12229 | 62.10660 | 36895 ft | 483 kts | 139° |
| 2026-05-08 17:33 | 18.07160 | 62.15334 | 36894 ft | 483 kts | 139° |
| 2026-05-08 17:34 | 18.02106 | 62.19990 | 36896 ft | 483 kts | 139° |
| 2026-05-08 17:34 | 17.97078 | 62.24618 | 36894 ft | 483 kts | 139° |
| 2026-05-08 17:35 | 17.92014 | 62.29277 | 36895 ft | 483 kts | 139° |
| 2026-05-08 17:35 | 17.86946 | 62.33934 | 36890 ft | 484 kts | 139° |
| 2026-05-08 17:36 | 17.82740 | 62.37798 | 36897 ft | 484 kts | 139° |
| 2026-05-08 17:37 | 17.71729 | 62.47899 | 36895 ft | 484 kts | 139° |
| 2026-05-08 17:37 | 17.66653 | 62.52550 | 36892 ft | 485 kts | 139° |
| 2026-05-08 17:38 | 17.61571 | 62.57203 | 36900 ft | 485 kts | 139° |
| 2026-05-08 17:38 | 17.56512 | 62.61831 | 36899 ft | 485 kts | 139° |
| 2026-05-08 17:39 | 17.51421 | 62.66485 | 36899 ft | 486 kts | 139° |
| 2026-05-08 17:39 | 17.46326 | 62.71139 | 36901 ft | 486 kts | 139° |
| 2026-05-08 17:40 | 17.41229 | 62.75791 | 36900 ft | 486 kts | 139° |
| 2026-05-08 17:40 | 17.36129 | 62.80442 | 36902 ft | 486 kts | 139° |
| 2026-05-08 17:41 | 17.31021 | 62.85097 | 36900 ft | 486 kts | 139° |
| 2026-05-08 17:41 | 17.25916 | 62.89747 | 36905 ft | 486 kts | 139° |
| 2026-05-08 17:42 | 17.20803 | 62.94399 | 36903 ft | 487 kts | 139° |
| 2026-05-08 17:42 | 17.15688 | 62.99051 | 36905 ft | 487 kts | 139° |
| 2026-05-08 17:43 | 17.10609 | 63.03666 | 36901 ft | 487 kts | 139° |
| 2026-05-08 17:43 | 17.05482 | 63.08322 | 36898 ft | 487 kts | 139° |
| 2026-05-08 17:44 | 17.00361 | 63.12963 | 36900 ft | 487 kts | 140° |
| 2026-05-08 17:44 | 16.95139 | 63.17533 | 37168 ft | 491 kts | 140° |
| 2026-05-08 17:45 | 16.92535 | 63.19773 | 37577 ft | 489 kts | 140° |
| 2026-05-08 17:45 | 16.89911 | 63.22029 | 38066 ft | 486 kts | 140° |
| 2026-05-08 17:45 | 16.87312 | 63.24266 | 38534 ft | 483 kts | 140° |
| 2026-05-08 17:45 | 16.84735 | 63.26490 | 38876 ft | 481 kts | 140° |
| 2026-05-08 17:46 | 16.79546 | 63.30978 | 38908 ft | 485 kts | 140° |
| 2026-05-08 17:46 | 16.74363 | 63.35465 | 38893 ft | 481 kts | 140° |
| 2026-05-08 17:47 | 16.69268 | 63.39873 | 38901 ft | 477 kts | 140° |
| 2026-05-08 17:47 | 16.65000 | 63.43563 | 38906 ft | 475 kts | 140° |
| 2026-05-08 17:48 | 16.59076 | 63.48679 | 38904 ft | 476 kts | 140° |
| 2026-05-08 17:48 | 16.53973 | 63.53083 | 38913 ft | 477 kts | 140° |
| 2026-05-08 17:49 | 16.48847 | 63.57503 | 38907 ft | 479 kts | 140° |
| 2026-05-08 17:49 | 16.43707 | 63.61933 | 38908 ft | 480 kts | 140° |
| 2026-05-08 17:50 | 16.38549 | 63.66375 | 38906 ft | 482 kts | 140° |
| 2026-05-08 17:50 | 16.33375 | 63.70827 | 38905 ft | 483 kts | 140° |
| 2026-05-08 17:51 | 16.28185 | 63.75291 | 38907 ft | 484 kts | 140° |
| 2026-05-08 17:51 | 16.23020 | 63.79729 | 38905 ft | 484 kts | 140° |
| 2026-05-08 17:52 | 16.17818 | 63.84196 | 38904 ft | 484 kts | 140° |
| 2026-05-08 17:53 | 16.11744 | 63.89408 | 38906 ft | 484 kts | 140° |
| 2026-05-08 17:53 | 16.04689 | 63.95456 | 38904 ft | 484 kts | 140° |
| 2026-05-08 17:54 | 15.99494 | 63.99906 | 38904 ft | 483 kts | 140° |
| 2026-05-08 17:54 | 15.94311 | 64.04343 | 38907 ft | 482 kts | 140° |
| 2026-05-08 17:55 | 15.89153 | 64.08755 | 38908 ft | 482 kts | 140° |
| 2026-05-08 17:55 | 15.83968 | 64.13187 | 38909 ft | 482 kts | 140° |
| 2026-05-08 17:56 | 15.78792 | 64.17609 | 38912 ft | 482 kts | 140° |
| 2026-05-08 17:56 | 15.73610 | 64.22033 | 38907 ft | 482 kts | 140° |
| 2026-05-08 17:57 | 15.68433 | 64.26449 | 38910 ft | 482 kts | 140° |
| 2026-05-08 17:57 | 15.63254 | 64.30864 | 38909 ft | 482 kts | 140° |
| 2026-05-08 17:58 | 15.58068 | 64.35283 | 38913 ft | 482 kts | 140° |
| 2026-05-08 17:58 | 15.52913 | 64.39671 | 38913 ft | 482 kts | 140° |
| 2026-05-08 17:59 | 15.47727 | 64.44084 | 38911 ft | 482 kts | 140° |
| 2026-05-08 17:59 | 15.42532 | 64.48500 | 38912 ft | 482 kts | 140° |
| 2026-05-08 18:00 | 15.37332 | 64.52918 | 38914 ft | 483 kts | 140° |
| 2026-05-08 18:00 | 15.29568 | 64.59510 | 38915 ft | 483 kts | 140° |
| 2026-05-08 18:01 | 15.24369 | 64.63920 | 38913 ft | 483 kts | 140° |
| 2026-05-08 18:01 | 15.19173 | 64.68324 | 38914 ft | 483 kts | 140° |
| 2026-05-08 18:02 | 15.14842 | 64.71994 | 38919 ft | 483 kts | 140° |
| 2026-05-08 18:02 | 15.08753 | 64.77149 | 38916 ft | 483 kts | 140° |
| 2026-05-08 18:03 | 15.07911 | 64.77861 | 38916 ft | 483 kts | 140° |
| 2026-05-08 18:03 | 14.99132 | 64.85286 | 38917 ft | 482 kts | 140° |
| 2026-05-08 18:04 | 14.93941 | 64.89673 | 38917 ft | 482 kts | 140° |
| 2026-05-08 18:04 | 14.88746 | 64.94060 | 38917 ft | 481 kts | 140° |
| 2026-05-08 18:05 | 14.83552 | 64.98444 | 38918 ft | 481 kts | 140° |
| 2026-05-08 18:05 | 14.78387 | 65.02800 | 38917 ft | 481 kts | 140° |
| 2026-05-08 18:06 | 14.73197 | 65.07175 | 38917 ft | 481 kts | 140° |
| 2026-05-08 18:06 | 14.68005 | 65.11549 | 38916 ft | 482 kts | 140° |
| 2026-05-08 18:07 | 14.62810 | 65.15924 | 38918 ft | 482 kts | 140° |
| 2026-05-08 18:07 | 14.57600 | 65.20306 | 38918 ft | 482 kts | 140° |
| 2026-05-08 18:08 | 14.52392 | 65.24682 | 38916 ft | 482 kts | 140° |
| 2026-05-08 18:08 | 14.47192 | 65.29048 | 38915 ft | 482 kts | 140° |
| 2026-05-08 18:09 | 14.42014 | 65.33395 | 38915 ft | 483 kts | 141° |
| 2026-05-08 18:09 | 14.36770 | 65.37796 | 38916 ft | 483 kts | 141° |
| 2026-05-08 18:10 | 14.31594 | 65.42137 | 38914 ft | 483 kts | 141° |
| 2026-05-08 18:10 | 14.26377 | 65.46508 | 38925 ft | 482 kts | 140° |
| 2026-05-08 18:11 | 14.21170 | 65.50869 | 38908 ft | 481 kts | 140° |
| 2026-05-08 18:11 | 14.15982 | 65.55212 | 38910 ft | 480 kts | 140° |
| 2026-05-08 18:12 | 14.10805 | 65.59543 | 38913 ft | 479 kts | 140° |
| 2026-05-08 18:12 | 14.05667 | 65.63839 | 38909 ft | 478 kts | 140° |
| 2026-05-08 18:13 | 14.00504 | 65.68153 | 38915 ft | 478 kts | 140° |
| 2026-05-08 18:13 | 13.95341 | 65.72464 | 38911 ft | 478 kts | 140° |
| 2026-05-08 18:14 | 13.90170 | 65.76780 | 38912 ft | 478 kts | 140° |
| 2026-05-08 18:14 | 13.84998 | 65.81093 | 38914 ft | 479 kts | 140° |
| 2026-05-08 18:15 | 13.79816 | 65.85413 | 38913 ft | 479 kts | 140° |
| 2026-05-08 18:15 | 13.74663 | 65.89706 | 38914 ft | 479 kts | 140° |
| 2026-05-08 18:16 | 13.69470 | 65.94029 | 38915 ft | 480 kts | 140° |
| 2026-05-08 18:16 | 13.64273 | 65.98354 | 38909 ft | 480 kts | 140° |
| 2026-05-08 18:17 | 13.59077 | 66.02675 | 38914 ft | 480 kts | 140° |
| 2026-05-08 18:17 | 13.53906 | 66.06972 | 38913 ft | 481 kts | 140° |
| 2026-05-08 18:18 | 13.48694 | 66.11302 | 38910 ft | 481 kts | 140° |
| 2026-05-08 18:18 | 13.43491 | 66.15621 | 38910 ft | 481 kts | 140° |
| 2026-05-08 18:19 | 13.38282 | 66.19943 | 38911 ft | 481 kts | 140° |
| 2026-05-08 18:19 | 13.33083 | 66.24254 | 38915 ft | 480 kts | 140° |
| 2026-05-08 18:20 | 13.27888 | 66.28559 | 38913 ft | 478 kts | 140° |
| 2026-05-08 18:20 | 13.22714 | 66.32844 | 38904 ft | 477 kts | 140° |
| 2026-05-08 18:21 | 13.17589 | 66.37087 | 38908 ft | 476 kts | 140° |
| 2026-05-08 18:21 | 13.12435 | 66.41352 | 38910 ft | 475 kts | 140° |
| 2026-05-08 18:22 | 13.07287 | 66.45608 | 38909 ft | 474 kts | 140° |
| 2026-05-08 18:22 | 13.02139 | 66.49862 | 38907 ft | 475 kts | 140° |
| 2026-05-08 18:23 | 12.96995 | 66.54112 | 38903 ft | 475 kts | 140° |
| 2026-05-08 18:23 | 12.91878 | 66.58336 | 38909 ft | 475 kts | 140° |
| 2026-05-08 18:24 | 12.86717 | 66.62595 | 38905 ft | 476 kts | 140° |
| 2026-05-08 18:24 | 12.81557 | 66.66849 | 38903 ft | 476 kts | 140° |
| 2026-05-08 18:25 | 12.76384 | 66.71113 | 38907 ft | 476 kts | 140° |
| 2026-05-08 18:25 | 12.71228 | 66.75360 | 38904 ft | 476 kts | 140° |
| 2026-05-08 18:26 | 12.66067 | 66.79609 | 38901 ft | 476 kts | 140° |
| 2026-05-08 18:26 | 12.60910 | 66.83853 | 38901 ft | 475 kts | 140° |
| 2026-05-08 18:27 | 12.56624 | 66.87378 | 38903 ft | 475 kts | 140° |
| 2026-05-08 18:27 | 12.50633 | 66.92302 | 38906 ft | 474 kts | 140° |
| 2026-05-08 18:28 | 12.45493 | 66.96526 | 38899 ft | 473 kts | 140° |
| 2026-05-08 18:28 | 12.40358 | 67.00742 | 38901 ft | 472 kts | 140° |
| 2026-05-08 18:29 | 12.35241 | 67.04942 | 38900 ft | 471 kts | 140° |
| 2026-05-08 18:29 | 12.30134 | 67.09131 | 38901 ft | 470 kts | 140° |
| 2026-05-08 18:30 | 12.25034 | 67.13312 | 38903 ft | 469 kts | 140° |
| 2026-05-08 18:30 | 12.19962 | 67.17469 | 38899 ft | 469 kts | 140° |
| 2026-05-08 18:31 | 12.14856 | 67.21651 | 38898 ft | 469 kts | 140° |
| 2026-05-08 18:31 | 12.09760 | 67.25824 | 38903 ft | 469 kts | 140° |
| 2026-05-08 18:32 | 12.04660 | 67.29997 | 38896 ft | 470 kts | 140° |
| 2026-05-08 18:32 | 11.99586 | 67.34148 | 38896 ft | 470 kts | 140° |
| 2026-05-08 18:33 | 11.94481 | 67.38320 | 38899 ft | 470 kts | 140° |
| 2026-05-08 18:33 | 11.89369 | 67.42494 | 38896 ft | 470 kts | 140° |
| 2026-05-08 18:34 | 11.84261 | 67.46664 | 38893 ft | 470 kts | 140° |
| 2026-05-08 18:34 | 11.79152 | 67.50834 | 38898 ft | 470 kts | 141° |
| 2026-05-08 18:35 | 11.74071 | 67.54979 | 38892 ft | 470 kts | 141° |
| 2026-05-08 18:35 | 11.68959 | 67.59149 | 38896 ft | 470 kts | 141° |
| 2026-05-08 18:36 | 11.63848 | 67.63314 | 38896 ft | 469 kts | 141° |
| 2026-05-08 18:36 | 11.58740 | 67.67476 | 38890 ft | 469 kts | 141° |
| 2026-05-08 18:37 | 11.53672 | 67.71602 | 38893 ft | 469 kts | 141° |
| 2026-05-08 18:37 | 11.48571 | 67.75754 | 38895 ft | 469 kts | 140° |
| 2026-05-08 18:38 | 11.43465 | 67.79908 | 38892 ft | 469 kts | 140° |
| 2026-05-08 18:38 | 11.38358 | 67.84061 | 38891 ft | 469 kts | 140° |
| 2026-05-08 18:39 | 11.33262 | 67.88202 | 38891 ft | 469 kts | 140° |
| 2026-05-08 18:39 | 11.28149 | 67.92356 | 38890 ft | 469 kts | 140° |
| 2026-05-08 18:40 | 11.23045 | 67.96500 | 38887 ft | 469 kts | 140° |
| 2026-05-08 18:40 | 11.17969 | 68.00620 | 38894 ft | 469 kts | 140° |
| 2026-05-08 18:41 | 11.12862 | 68.04762 | 38892 ft | 469 kts | 140° |
| 2026-05-08 18:41 | 11.07754 | 68.08905 | 38891 ft | 469 kts | 140° |
| 2026-05-08 18:42 | 11.02646 | 68.13045 | 38891 ft | 469 kts | 140° |
| 2026-05-08 18:42 | 10.97537 | 68.17183 | 38890 ft | 469 kts | 140° |
| 2026-05-08 18:43 | 10.92429 | 68.21320 | 38887 ft | 469 kts | 140° |
| 2026-05-08 18:43 | 10.87318 | 68.25456 | 38881 ft | 469 kts | 140° |
| 2026-05-08 18:44 | 10.82250 | 68.29556 | 38886 ft | 468 kts | 140° |
| 2026-05-08 18:44 | 10.77153 | 68.33678 | 38890 ft | 468 kts | 140° |
| 2026-05-08 18:45 | 10.72053 | 68.37800 | 38886 ft | 467 kts | 140° |
| 2026-05-08 18:45 | 10.66962 | 68.41914 | 38886 ft | 467 kts | 140° |
| 2026-05-08 18:46 | 10.61893 | 68.46007 | 38888 ft | 467 kts | 140° |
| 2026-05-08 18:46 | 10.57627 | 68.49451 | 38885 ft | 467 kts | 140° |
| 2026-05-08 18:47 | 10.52529 | 68.53565 | 38888 ft | 467 kts | 140° |
| 2026-05-08 18:47 | 10.47474 | 68.57642 | 38888 ft | 467 kts | 140° |
| 2026-05-08 18:48 | 10.42389 | 68.61742 | 38885 ft | 466 kts | 140° |
| 2026-05-08 18:48 | 10.37304 | 68.65840 | 38886 ft | 466 kts | 140° |
| 2026-05-08 18:49 | 10.32223 | 68.69933 | 38886 ft | 465 kts | 140° |
| 2026-05-08 18:49 | 10.27152 | 68.74016 | 38884 ft | 465 kts | 140° |
| 2026-05-08 18:50 | 10.22116 | 68.78070 | 38885 ft | 465 kts | 140° |
| 2026-05-08 18:50 | 10.17047 | 68.82148 | 38882 ft | 465 kts | 141° |
| 2026-05-08 18:51 | 10.11972 | 68.86230 | 38881 ft | 465 kts | 141° |
| 2026-05-08 18:51 | 10.06905 | 68.90303 | 38878 ft | 465 kts | 141° |
| 2026-05-08 18:52 | 10.01822 | 68.94387 | 38884 ft | 464 kts | 141° |
| 2026-05-08 18:52 | 9.96798 | 68.98423 | 38884 ft | 464 kts | 141° |
| 2026-05-08 18:53 | 9.91731 | 69.02492 | 38882 ft | 464 kts | 141° |
| 2026-05-08 18:53 | 9.86661 | 69.06561 | 38877 ft | 464 kts | 140° |
| 2026-05-08 18:54 | 9.81588 | 69.10632 | 38881 ft | 465 kts | 140° |
| 2026-05-08 18:54 | 9.76533 | 69.14686 | 38884 ft | 466 kts | 140° |
| 2026-05-08 18:55 | 9.68884 | 69.20814 | 38877 ft | 468 kts | 141° |
| 2026-05-08 18:56 | 9.63766 | 69.24908 | 38884 ft | 469 kts | 141° |
| 2026-05-08 18:56 | 9.58636 | 69.29012 | 38881 ft | 470 kts | 141° |
| 2026-05-08 18:57 | 9.53497 | 69.33121 | 38892 ft | 470 kts | 140° |
| 2026-05-08 18:57 | 9.48368 | 69.37222 | 38877 ft | 469 kts | 140° |
| 2026-05-08 18:58 | 9.43260 | 69.41305 | 38875 ft | 467 kts | 140° |
| 2026-05-08 18:58 | 9.38186 | 69.45359 | 38876 ft | 464 kts | 140° |
| 2026-05-08 18:59 | 9.33088 | 69.49431 | 38878 ft | 463 kts | 140° |
| 2026-05-08 18:59 | 9.28065 | 69.53441 | 38876 ft | 462 kts | 140° |
| 2026-05-08 19:00 | 9.23022 | 69.57466 | 38878 ft | 462 kts | 140° |
| 2026-05-08 19:00 | 9.17969 | 69.61496 | 38885 ft | 462 kts | 140° |
| 2026-05-08 19:01 | 9.12919 | 69.65524 | 38878 ft | 461 kts | 140° |
| 2026-05-08 19:01 | 9.07871 | 69.69548 | 38876 ft | 461 kts | 140° |
| 2026-05-08 19:02 | 9.02832 | 69.73563 | 38879 ft | 461 kts | 140° |
| 2026-05-08 19:02 | 8.97821 | 69.77555 | 38876 ft | 461 kts | 140° |
| 2026-05-08 19:03 | 8.92781 | 69.81569 | 38868 ft | 461 kts | 140° |
| 2026-05-08 19:03 | 8.87734 | 69.85585 | 38876 ft | 461 kts | 140° |
| 2026-05-08 19:04 | 8.82690 | 69.89599 | 38875 ft | 462 kts | 140° |
| 2026-05-08 19:04 | 8.77634 | 69.93621 | 38869 ft | 462 kts | 140° |
| 2026-05-08 19:05 | 8.72585 | 69.97636 | 38869 ft | 462 kts | 140° |
| 2026-05-08 19:05 | 8.67526 | 70.01657 | 38866 ft | 463 kts | 140° |
| 2026-05-08 19:06 | 8.62493 | 70.05656 | 38865 ft | 463 kts | 140° |
| 2026-05-08 19:06 | 8.57425 | 70.09682 | 38869 ft | 463 kts | 140° |
| 2026-05-08 19:07 | 8.52363 | 70.13701 | 38877 ft | 462 kts | 140° |
| 2026-05-08 19:07 | 8.47302 | 70.17718 | 38871 ft | 462 kts | 140° |
| 2026-05-08 19:08 | 8.42255 | 70.21723 | 38865 ft | 461 kts | 140° |
| 2026-05-08 19:08 | 8.37218 | 70.25718 | 38865 ft | 460 kts | 140° |
| 2026-05-08 19:09 | 8.32224 | 70.29678 | 38869 ft | 459 kts | 140° |
| 2026-05-08 19:09 | 8.27205 | 70.33657 | 38869 ft | 458 kts | 140° |
| 2026-05-08 19:10 | 8.22178 | 70.37640 | 38869 ft | 458 kts | 140° |
| 2026-05-08 19:10 | 8.17164 | 70.41612 | 38869 ft | 458 kts | 140° |
| 2026-05-08 19:11 | 8.12145 | 70.45586 | 38867 ft | 458 kts | 140° |
| 2026-05-08 19:11 | 8.07161 | 70.49533 | 38866 ft | 458 kts | 140° |
| 2026-05-08 19:12 | 8.02152 | 70.53496 | 38867 ft | 458 kts | 140° |
| 2026-05-08 19:12 | 7.97130 | 70.57470 | 38870 ft | 458 kts | 140° |
| 2026-05-08 19:13 | 7.92110 | 70.61440 | 38868 ft | 459 kts | 140° |
| 2026-05-08 19:13 | 7.87082 | 70.65415 | 38877 ft | 459 kts | 140° |
| 2026-05-08 19:14 | 7.82060 | 70.69384 | 38862 ft | 459 kts | 139° |
| 2026-05-08 19:14 | 7.77067 | 70.73329 | 38860 ft | 458 kts | 139° |
| 2026-05-08 19:15 | 7.72050 | 70.77293 | 38857 ft | 458 kts | 139° |
| 2026-05-08 19:15 | 7.67035 | 70.81253 | 38870 ft | 458 kts | 139° |
| 2026-05-08 19:16 | 7.62023 | 70.85210 | 38877 ft | 457 kts | 139° |
| 2026-05-08 19:16 | 7.57006 | 70.89170 | 38856 ft | 458 kts | 139° |
| 2026-05-08 19:17 | 7.51993 | 70.93126 | 38876 ft | 459 kts | 140° |
| 2026-05-08 19:17 | 7.46953 | 70.97098 | 38874 ft | 460 kts | 140° |
| 2026-05-08 19:18 | 7.41906 | 71.01067 | 38857 ft | 461 kts | 140° |
| 2026-05-08 19:18 | 7.36836 | 71.05054 | 38858 ft | 462 kts | 140° |
| 2026-05-08 19:19 | 7.31763 | 71.09043 | 38873 ft | 463 kts | 140° |
| 2026-05-08 19:19 | 7.26718 | 71.13010 | 38873 ft | 463 kts | 140° |
| 2026-05-08 19:20 | 7.22453 | 71.16363 | 38855 ft | 463 kts | 140° |
| 2026-05-08 19:20 | 7.16551 | 71.21001 | 38866 ft | 462 kts | 140° |
| 2026-05-08 19:21 | 7.11487 | 71.24979 | 38856 ft | 461 kts | 140° |
| 2026-05-08 19:21 | 7.06444 | 71.28940 | 38858 ft | 459 kts | 140° |
| 2026-05-08 19:22 | 7.01420 | 71.32885 | 38860 ft | 457 kts | 140° |
| 2026-05-08 19:22 | 6.96412 | 71.36816 | 38858 ft | 456 kts | 140° |
| 2026-05-08 19:23 | 6.91405 | 71.40746 | 38857 ft | 456 kts | 140° |
| 2026-05-08 19:23 | 6.86405 | 71.44668 | 38854 ft | 456 kts | 140° |
| 2026-05-08 19:24 | 6.81403 | 71.48593 | 38857 ft | 456 kts | 140° |
| 2026-05-08 19:24 | 6.76419 | 71.52501 | 38861 ft | 457 kts | 140° |
| 2026-05-08 19:25 | 6.71398 | 71.56437 | 38864 ft | 458 kts | 140° |
| 2026-05-08 19:25 | 6.66367 | 71.60380 | 38859 ft | 459 kts | 140° |
| 2026-05-08 19:26 | 6.61317 | 71.64336 | 38862 ft | 459 kts | 140° |
| 2026-05-08 19:26 | 6.56271 | 71.68289 | 38865 ft | 460 kts | 140° |
| 2026-05-08 19:27 | 6.51222 | 71.72243 | 38857 ft | 460 kts | 140° |
| 2026-05-08 19:27 | 6.46194 | 71.76180 | 38856 ft | 461 kts | 141° |
| 2026-05-08 19:28 | 6.41131 | 71.80144 | 38865 ft | 462 kts | 141° |
| 2026-05-08 19:28 | 6.36010 | 71.84067 | 38860 ft | 464 kts | 145° |
| 2026-05-08 19:29 | 6.30397 | 71.87316 | 38869 ft | 466 kts | 150° |
| 2026-05-08 19:29 | 6.24641 | 71.90347 | 38861 ft | 467 kts | 150° |
| 2026-05-08 19:30 | 6.18930 | 71.93453 | 38866 ft | 466 kts | 149° |
| 2026-05-08 19:30 | 6.13256 | 71.96619 | 38859 ft | 466 kts | 149° |
| 2026-05-08 19:31 | 6.07588 | 71.99795 | 38861 ft | 466 kts | 149° |
| 2026-05-08 19:31 | 6.01917 | 72.02967 | 38860 ft | 467 kts | 149° |
| 2026-05-08 19:32 | 5.96268 | 72.06123 | 38861 ft | 467 kts | 149° |
| 2026-05-08 19:32 | 5.90587 | 72.09296 | 38861 ft | 467 kts | 149° |
| 2026-05-08 19:33 | 5.84894 | 72.12474 | 38863 ft | 467 kts | 149° |
| 2026-05-08 19:33 | 5.79255 | 72.15617 | 38870 ft | 467 kts | 149° |
| 2026-05-08 19:34 | 5.73565 | 72.18789 | 38862 ft | 468 kts | 149° |
| 2026-05-08 19:34 | 5.68831 | 72.21428 | 38864 ft | 468 kts | 149° |
| 2026-05-08 19:35 | 5.63126 | 72.24607 | 38867 ft | 469 kts | 149° |
| 2026-05-08 19:35 | 5.60264 | 72.26203 | 38607 ft | 474 kts | 149° |
| 2026-05-08 19:35 | 5.57343 | 72.27831 | 37942 ft | 478 kts | 149° |
| 2026-05-08 19:35 | 5.54455 | 72.29440 | 37463 ft | 472 kts | 149° |
| 2026-05-08 19:36 | 5.51601 | 72.31028 | 36958 ft | 466 kts | 149° |
| 2026-05-08 19:36 | 5.48782 | 72.32598 | 36474 ft | 461 kts | 149° |
| 2026-05-08 19:36 | 5.45993 | 72.34150 | 36023 ft | 456 kts | 149° |
| 2026-05-08 19:36 | 5.43232 | 72.35688 | 35563 ft | 452 kts | 149° |
| 2026-05-08 19:37 | 5.40495 | 72.37212 | 35071 ft | 448 kts | 150° |
| 2026-05-08 19:37 | 5.37778 | 72.38726 | 34581 ft | 445 kts | 150° |
| 2026-05-08 19:37 | 5.35079 | 72.40229 | 34091 ft | 442 kts | 150° |
| 2026-05-08 19:37 | 5.32397 | 72.41723 | 33566 ft | 439 kts | 150° |
| 2026-05-08 19:38 | 5.29733 | 72.43205 | 33063 ft | 436 kts | 150° |
| 2026-05-08 19:38 | 5.27087 | 72.44677 | 32578 ft | 432 kts | 150° |
| 2026-05-08 19:38 | 5.24470 | 72.46134 | 32107 ft | 428 kts | 150° |
| 2026-05-08 19:38 | 5.21874 | 72.47578 | 31668 ft | 425 kts | 150° |
| 2026-05-08 19:39 | 5.19299 | 72.49011 | 31199 ft | 422 kts | 150° |
| 2026-05-08 19:39 | 5.16776 | 72.50415 | 30772 ft | 419 kts | 149° |
| 2026-05-08 19:39 | 5.14202 | 72.51847 | 30310 ft | 416 kts | 149° |
| 2026-05-08 19:39 | 5.11709 | 72.53234 | 29856 ft | 414 kts | 149° |
| 2026-05-08 19:40 | 5.09195 | 72.54632 | 29354 ft | 412 kts | 149° |
| 2026-05-08 19:40 | 5.06693 | 72.56024 | 28881 ft | 409 kts | 149° |
| 2026-05-08 19:40 | 5.04216 | 72.57402 | 28431 ft | 405 kts | 149° |
| 2026-05-08 19:40 | 5.01758 | 72.58768 | 27997 ft | 402 kts | 149° |
| 2026-05-08 19:41 | 4.99319 | 72.60125 | 27570 ft | 399 kts | 150° |
| 2026-05-08 19:41 | 4.96892 | 72.61474 | 27146 ft | 397 kts | 150° |
| 2026-05-08 19:41 | 4.94487 | 72.62812 | 26726 ft | 394 kts | 149° |
| 2026-05-08 19:41 | 4.92102 | 72.64139 | 26316 ft | 392 kts | 149° |
| 2026-05-08 19:42 | 4.89720 | 72.65462 | 25910 ft | 389 kts | 149° |
| 2026-05-08 19:42 | 4.87356 | 72.66776 | 25496 ft | 388 kts | 149° |
| 2026-05-08 19:42 | 4.85001 | 72.68084 | 25090 ft | 386 kts | 149° |
| 2026-05-08 19:42 | 4.82654 | 72.69388 | 24673 ft | 385 kts | 150° |
| 2026-05-08 19:43 | 4.80313 | 72.70689 | 24274 ft | 384 kts | 150° |
| 2026-05-08 19:43 | 4.78002 | 72.71974 | 23876 ft | 384 kts | 150° |
| 2026-05-08 19:43 | 4.75668 | 72.73271 | 23485 ft | 384 kts | 150° |
| 2026-05-08 19:43 | 4.73334 | 72.74568 | 23009 ft | 383 kts | 150° |
| 2026-05-08 19:44 | 4.71002 | 72.75863 | 22586 ft | 381 kts | 151° |
| 2026-05-08 19:44 | 4.68691 | 72.77146 | 22175 ft | 380 kts | 151° |
| 2026-05-08 19:44 | 4.66385 | 72.78427 | 21776 ft | 378 kts | 151° |
| 2026-05-08 19:44 | 4.64084 | 72.79705 | 21385 ft | 377 kts | 151° |
| 2026-05-08 19:45 | 4.61801 | 72.80973 | 20987 ft | 375 kts | 151° |
| 2026-05-08 19:45 | 4.59522 | 72.82238 | 20585 ft | 374 kts | 151° |
| 2026-05-08 19:45 | 4.57250 | 72.83500 | 20171 ft | 373 kts | 151° |
| 2026-05-08 19:45 | 4.54984 | 72.84759 | 19782 ft | 372 kts | 151° |
| 2026-05-08 19:46 | 4.52715 | 72.86018 | 19370 ft | 372 kts | 151° |
| 2026-05-08 19:46 | 4.50456 | 72.87272 | 18963 ft | 372 kts | 151° |
| 2026-05-08 19:46 | 4.45930 | 72.89784 | 18177 ft | 371 kts | 152° |
| 2026-05-08 19:47 | 4.43679 | 72.91033 | 17782 ft | 369 kts | 152° |
| 2026-05-08 19:47 | 4.41439 | 72.92277 | 17386 ft | 367 kts | 152° |
| 2026-05-08 19:47 | 4.39207 | 72.93515 | 16982 ft | 366 kts | 152° |
| 2026-05-08 19:47 | 4.36982 | 72.94750 | 16576 ft | 365 kts | 152° |
| 2026-05-08 19:48 | 4.34761 | 72.95983 | 16171 ft | 364 kts | 152° |
| 2026-05-08 19:48 | 4.32551 | 72.97210 | 15771 ft | 363 kts | 152° |
| 2026-05-08 19:48 | 4.30346 | 72.98433 | 15372 ft | 362 kts | 152° |
| 2026-05-08 19:48 | 4.28152 | 72.99650 | 14980 ft | 361 kts | 152° |
| 2026-05-08 19:49 | 4.25953 | 73.00870 | 14583 ft | 360 kts | 152° |
| 2026-05-08 19:49 | 4.23765 | 73.02083 | 14185 ft | 360 kts | 152° |
| 2026-05-08 19:49 | 4.21568 | 73.03301 | 13777 ft | 360 kts | 152° |
| 2026-05-08 19:49 | 4.19376 | 73.04517 | 13343 ft | 360 kts | 152° |
| 2026-05-08 19:50 | 4.17218 | 73.05714 | 12933 ft | 359 kts | 152° |
| 2026-05-08 19:50 | 4.15039 | 73.06922 | 12525 ft | 357 kts | 152° |
| 2026-05-08 19:50 | 4.12869 | 73.08125 | 12123 ft | 356 kts | 152° |
| 2026-05-08 19:50 | 4.10701 | 73.09327 | 11712 ft | 355 kts | 152° |
| 2026-05-08 19:51 | 4.08544 | 73.10523 | 11318 ft | 354 kts | 152° |
| 2026-05-08 19:51 | 4.06389 | 73.11719 | 10923 ft | 353 kts | 151° |
| 2026-05-08 19:51 | 4.04241 | 73.12911 | 10528 ft | 352 kts | 151° |
| 2026-05-08 19:51 | 4.02099 | 73.14098 | 10203 ft | 350 kts | 151° |
| 2026-05-08 19:52 | 3.99992 | 73.15265 | 10052 ft | 341 kts | 151° |
| 2026-05-08 19:52 | 3.97922 | 73.16414 | 9807 ft | 334 kts | 150° |
| 2026-05-08 19:52 | 3.96157 | 73.17841 | 9481 ft | 324 kts | 127° |
| 2026-05-08 19:52 | 3.95155 | 73.19765 | 9201 ft | 311 kts | 107° |
| 2026-05-08 19:53 | 3.94790 | 73.21895 | 8688 ft | 311 kts | 90° |
| 2026-05-08 19:53 | 3.94805 | 73.24022 | 8288 ft | 296 kts | 88° |
| 2026-05-08 19:53 | 3.94833 | 73.26066 | 7980 ft | 298 kts | 88° |
| 2026-05-08 19:53 | 3.94849 | 73.28199 | 7658 ft | 315 kts | 88° |
| 2026-05-08 19:54 | 3.94857 | 73.30377 | 7432 ft | 310 kts | 88° |
| 2026-05-08 19:54 | 3.94865 | 73.32494 | 7020 ft | 298 kts | 88° |
| 2026-05-08 19:54 | 3.94871 | 73.34532 | 6429 ft | 288 kts | 88° |
| 2026-05-08 19:54 | 3.94877 | 73.36532 | 5922 ft | 290 kts | 88° |
| 2026-05-08 19:55 | 3.94883 | 73.38570 | 5746 ft | 293 kts | 89° |
| 2026-05-08 19:55 | 3.94887 | 73.40589 | 5558 ft | 285 kts | 89° |
| 2026-05-08 19:55 | 3.94890 | 73.42525 | 5450 ft | 272 kts | 89° |
| 2026-05-08 19:55 | 3.94891 | 73.44378 | 5313 ft | 260 kts | 89° |
| 2026-05-08 19:56 | 3.94892 | 73.46151 | 4966 ft | 253 kts | 89° |
| 2026-05-08 19:56 | 3.94893 | 73.47861 | 4635 ft | 239 kts | 89° |
| 2026-05-08 19:56 | 3.94894 | 73.49477 | 4393 ft | 225 kts | 89° |
| 2026-05-08 19:56 | 3.94931 | 73.51010 | 4186 ft | 223 kts | 78° |
| 2026-05-08 19:57 | 3.95579 | 73.52394 | 3988 ft | 221 kts | 42° |
| 2026-05-08 19:57 | 3.96893 | 73.53126 | 3761 ft | 217 kts | 6° |
| 2026-05-08 19:57 | 3.98368 | 73.53142 | 3552 ft | 211 kts | 355° |
| 2026-05-08 19:57 | 3.99842 | 73.53113 | 3327 ft | 212 kts | 357° |
| 2026-05-08 19:58 | 4.01289 | 73.53111 | 3120 ft | 203 kts | 357° |
| 2026-05-08 19:58 | 4.02675 | 73.53110 | 2891 ft | 197 kts | 357° |
| 2026-05-08 19:58 | 4.04029 | 73.53109 | 2659 ft | 192 kts | 357° |
| 2026-05-08 19:58 | 4.05346 | 73.53108 | 2446 ft | 187 kts | 357° |
| 2026-05-08 19:59 | 4.06637 | 73.53107 | 2220 ft | 184 kts | 357° |
| 2026-05-08 19:59 | 4.07903 | 73.53106 | 2006 ft | 176 kts | 356° |
| 2026-05-08 19:59 | 4.09067 | 73.53107 | 1785 ft | 165 kts | 356° |
| 2026-05-08 19:59 | 4.10214 | 73.53105 | 1593 ft | 166 kts | 357° |
| 2026-05-08 20:00 | 4.11363 | 73.53105 | 1352 ft | 163 kts | 356° |
| 2026-05-08 20:00 | 4.12482 | 73.53104 | 1151 ft | 156 kts | 356° |
| 2026-05-08 20:00 | 4.13510 | 73.53104 | 964 ft | 144 kts | 355° |
| 2026-05-08 20:00 | 4.14543 | 73.53102 | 784 ft | 149 kts | 356° |
| 2026-05-08 20:01 | 4.15582 | 73.53101 | 627 ft | 149 kts | 356° |
| 2026-05-08 20:01 | 4.16614 | 73.53104 | 403 ft | 146 kts | 358° |
| 2026-05-08 20:01 | 4.17598 | 73.53105 | 234 ft | 141 kts | 358° |
| 2026-05-08 20:01 | 4.18603 | 73.53095 | 50 ft | 148 kts | 356° |
| 2026-05-08 20:02 | 4.19580 | 73.53092 | 17 ft | 123 kts | 1° |
| 2026-05-08 20:02 | 4.20247 | 73.53098 | 17 ft | 70 kts | 360° |
| 2026-05-08 20:02 | 4.20538 | 73.53101 | 17 ft | 23 kts | 360° |
| 2026-05-08 20:02 | 4.20699 | 73.53101 | 17 ft | 23 kts | 360° |
| 2026-05-08 20:03 | 4.20825 | 73.53100 | 17 ft | 18 kts | 360° |
| 2026-05-08 20:03 | 4.20913 | 73.53087 | 17 ft | 12 kts | 322° |
| 2026-05-08 20:03 | 4.20929 | 73.53008 | 17 ft | 12 kts | 269° |
| 2026-05-08 20:03 | 4.20916 | 73.52928 | 18 ft | 12 kts | 231° |
| 2026-05-08 20:04 | 4.20839 | 73.52898 | 17 ft | 11 kts | 193° |
| 2026-05-08 20:04 | 4.20763 | 73.52888 | 17 ft | 11 kts | 180° |
| 2026-05-08 20:04 | 4.20683 | 73.52890 | 17 ft | 12 kts | 179° |
| 2026-05-08 20:04 | 4.20596 | 73.52892 | 17 ft | 13 kts | 179° |
| 2026-05-08 20:05 | 4.20504 | 73.52893 | 17 ft | 14 kts | 179° |
| 2026-05-08 20:05 | 4.20407 | 73.52895 | 17 ft | 14 kts | 179° |
| 2026-05-08 20:05 | 4.20305 | 73.52897 | 17 ft | 15 kts | 179° |
| 2026-05-08 20:05 | 4.20199 | 73.52899 | 17 ft | 15 kts | 178° |
| 2026-05-08 20:06 | 4.20091 | 73.52900 | 17 ft | 15 kts | 179° |
| 2026-05-08 20:06 | 4.19984 | 73.52902 | 17 ft | 15 kts | 179° |
| 2026-05-08 20:06 | 4.19876 | 73.52903 | 17 ft | 15 kts | 179° |
| 2026-05-08 20:06 | 4.19769 | 73.52906 | 18 ft | 15 kts | 179° |
| 2026-05-08 20:07 | 4.19661 | 73.52907 | 17 ft | 15 kts | 179° |
| 2026-05-08 20:07 | 4.19554 | 73.52909 | 17 ft | 15 kts | 179° |
| 2026-05-08 20:07 | 4.19447 | 73.52911 | 17 ft | 15 kts | 179° |
| 2026-05-08 20:07 | 4.19339 | 73.52913 | 17 ft | 15 kts | 179° |
| 2026-05-08 20:08 | 4.19232 | 73.52914 | 17 ft | 15 kts | 179° |
| 2026-05-08 20:08 | 4.19137 | 73.52916 | 17 ft | 11 kts | 179° |
| 2026-05-08 20:08 | 4.19057 | 73.52917 | 17 ft | 11 kts | 179° |
| 2026-05-08 20:08 | 4.18981 | 73.52918 | 17 ft | 11 kts | 179° |
| 2026-05-08 20:09 | 4.18901 | 73.52920 | 17 ft | 12 kts | 179° |
| 2026-05-08 20:09 | 4.18817 | 73.52922 | 17 ft | 10 kts | 180° |
| 2026-05-08 20:09 | 4.18749 | 73.52922 | 17 ft | 10 kts | 179° |
| 2026-05-08 20:09 | 4.18691 | 73.52895 | 18 ft | 10 kts | 239° |
| 2026-05-08 20:10 | 4.18652 | 73.52859 | 17 ft | 7 kts | 199° |
| 2026-05-08 20:10 | 4.18607 | 73.52856 | 17 ft | 5 kts | 179° |
| 2026-05-08 20:10 | 4.18568 | 73.52850 | 19 ft | 6 kts | 214° |
| 2026-05-08 20:10 | 4.18559 | 73.52830 | 17 ft | 3 kts | 257° |
| 2026-05-08 20:11 | 4.18557 | 73.52808 | 17 ft | 1 kts | 266° |
| 2026-05-08 20:11 | 4.18557 | 73.52806 | 17 ft | 0 kts | 266° |